RYR7VZ LGKR-EDDK
Flight info
| Callsign | RYR7VZ |
|---|---|
| Flight time | 2h 17m |
| Altitude | 34000 |
| Route | OLGAT DCT ABADI DCT CRAYE DCT GISAM DCT RILIM DCT PEVAL DCT SOTOV DCT KPT L608 KOVAN T844 ASKIK T840 GULKO GULKO1B |
| Aircraft | B738/M-SDE2E3FGHIRWXY/LB1 |
Departure
| Time | 2026-05-05 15:40 |
|---|---|
| Airport | Corfu Ioannis Kapodistrias International Airport (LGKR) |
Arrival
| Time | 2026-05-05 17:58 |
|---|---|
| Airport | Cologne Bonn Airport (EDDK) |
| Time | Latitude | Longitude | Altitude | Speed | Heading |
|---|---|---|---|---|---|
| 2026-05-05 15:05 | 39.60628 | 19.91361 | 17 ft | 0 kts | 80° |
| 2026-05-05 15:27 | 39.60628 | 19.91360 | 17 ft | 1 kts | 80° |
| 2026-05-05 15:27 | 39.60623 | 19.91334 | 17 ft | 4 kts | 59° |
| 2026-05-05 15:27 | 39.60605 | 19.91311 | 17 ft | 4 kts | 19° |
| 2026-05-05 15:27 | 39.60580 | 19.91308 | 18 ft | 4 kts | 340° |
| 2026-05-05 15:28 | 39.60568 | 19.91315 | 20 ft | 1 kts | 320° |
| 2026-05-05 15:30 | 39.60578 | 19.91299 | 18 ft | 7 kts | 305° |
| 2026-05-05 15:30 | 39.60595 | 19.91241 | 17 ft | 5 kts | 270° |
| 2026-05-05 15:30 | 39.60595 | 19.91236 | 17 ft | 0 kts | 268° |
| 2026-05-05 15:36 | 39.60594 | 19.91235 | 17 ft | 1 kts | 266° |
| 2026-05-05 15:36 | 39.60563 | 19.91184 | 17 ft | 13 kts | 210° |
| 2026-05-05 15:36 | 39.60466 | 19.91148 | 18 ft | 15 kts | 179° |
| 2026-05-05 15:36 | 39.60367 | 19.91169 | 18 ft | 14 kts | 169° |
| 2026-05-05 15:37 | 39.60272 | 19.91193 | 21 ft | 14 kts | 169° |
| 2026-05-05 15:37 | 39.60168 | 19.91220 | 21 ft | 17 kts | 168° |
| 2026-05-05 15:37 | 39.60042 | 19.91253 | 21 ft | 20 kts | 168° |
| 2026-05-05 15:37 | 39.59898 | 19.91290 | 21 ft | 22 kts | 168° |
| 2026-05-05 15:38 | 39.59738 | 19.91331 | 21 ft | 25 kts | 169° |
| 2026-05-05 15:38 | 39.59556 | 19.91379 | 17 ft | 28 kts | 168° |
| 2026-05-05 15:38 | 39.59372 | 19.91425 | 16 ft | 26 kts | 168° |
| 2026-05-05 15:38 | 39.59239 | 19.91462 | 17 ft | 15 kts | 161° |
| 2026-05-05 15:39 | 39.59162 | 19.91495 | 16 ft | 12 kts | 232° |
| 2026-05-05 15:39 | 39.59216 | 19.91450 | 16 ft | 17 kts | 354° |
| 2026-05-05 15:39 | 39.59598 | 19.91363 | 17 ft | 95 kts | 348° |
| 2026-05-05 15:39 | 39.60484 | 19.91134 | 18 ft | 162 kts | 347° |
| 2026-05-05 15:40 | 39.61696 | 19.90802 | 545 ft | 182 kts | 347° |
| 2026-05-05 15:40 | 39.62953 | 19.90487 | 1488 ft | 185 kts | 348° |
| 2026-05-05 15:40 | 39.64254 | 19.90165 | 2134 ft | 199 kts | 345° |
| 2026-05-05 15:40 | 39.65514 | 19.89285 | 2507 ft | 215 kts | 311° |
| 2026-05-05 15:41 | 39.66121 | 19.87527 | 3006 ft | 222 kts | 272° |
| 2026-05-05 15:41 | 39.65937 | 19.85520 | 3587 ft | 227 kts | 264° |
| 2026-05-05 15:41 | 39.65954 | 19.83397 | 4096 ft | 241 kts | 271° |
| 2026-05-05 15:41 | 39.65963 | 19.81252 | 5072 ft | 232 kts | 269° |
| 2026-05-05 15:42 | 39.66136 | 19.79168 | 5815 ft | 237 kts | 292° |
| 2026-05-05 15:42 | 39.67104 | 19.77349 | 6170 ft | 259 kts | 313° |
| 2026-05-05 15:42 | 39.68402 | 19.75616 | 6630 ft | 274 kts | 314° |
| 2026-05-05 15:42 | 39.69755 | 19.73844 | 7342 ft | 277 kts | 315° |
| 2026-05-05 15:43 | 39.71110 | 19.72062 | 8167 ft | 278 kts | 314° |
| 2026-05-05 15:43 | 39.72470 | 19.70260 | 8940 ft | 281 kts | 314° |
| 2026-05-05 15:43 | 39.73840 | 19.68432 | 9697 ft | 284 kts | 314° |
| 2026-05-05 15:43 | 39.75220 | 19.66582 | 10411 ft | 288 kts | 314° |
| 2026-05-05 15:44 | 39.76661 | 19.64642 | 10636 ft | 310 kts | 314° |
| 2026-05-05 15:44 | 39.78208 | 19.62555 | 10847 ft | 331 kts | 314° |
| 2026-05-05 15:44 | 39.79840 | 19.60348 | 11252 ft | 343 kts | 314° |
| 2026-05-05 15:44 | 39.81503 | 19.58098 | 11970 ft | 345 kts | 314° |
| 2026-05-05 15:45 | 39.83171 | 19.55838 | 12677 ft | 349 kts | 314° |
| 2026-05-05 15:45 | 39.84861 | 19.53549 | 13341 ft | 353 kts | 314° |
| 2026-05-05 15:45 | 39.86571 | 19.51241 | 14014 ft | 356 kts | 314° |
| 2026-05-05 15:45 | 39.88306 | 19.48915 | 14665 ft | 358 kts | 314° |
| 2026-05-05 15:46 | 39.90042 | 19.46590 | 15369 ft | 359 kts | 314° |
| 2026-05-05 15:46 | 39.91784 | 19.44256 | 16028 ft | 360 kts | 313° |
| 2026-05-05 15:46 | 39.93529 | 19.41915 | 16694 ft | 362 kts | 313° |
| 2026-05-05 15:46 | 39.95283 | 19.39556 | 17363 ft | 363 kts | 313° |
| 2026-05-05 15:47 | 39.97043 | 19.37189 | 18006 ft | 364 kts | 313° |
| 2026-05-05 15:47 | 39.98212 | 19.35616 | 18436 ft | 365 kts | 313° |
| 2026-05-05 15:47 | 40.00583 | 19.32422 | 19165 ft | 368 kts | 313° |
| 2026-05-05 15:47 | 40.02367 | 19.30017 | 19707 ft | 369 kts | 313° |
| 2026-05-05 15:48 | 40.04157 | 19.27601 | 20245 ft | 371 kts | 313° |
| 2026-05-05 15:48 | 40.05956 | 19.25171 | 20765 ft | 373 kts | 313° |
| 2026-05-05 15:48 | 40.07763 | 19.22727 | 21283 ft | 375 kts | 313° |
| 2026-05-05 15:48 | 40.09578 | 19.20271 | 21795 ft | 377 kts | 313° |
| 2026-05-05 15:49 | 40.11403 | 19.17800 | 22287 ft | 378 kts | 313° |
| 2026-05-05 15:49 | 40.13230 | 19.15323 | 22749 ft | 380 kts | 313° |
| 2026-05-05 15:49 | 40.15075 | 19.12820 | 23189 ft | 383 kts | 313° |
| 2026-05-05 15:49 | 40.16924 | 19.10310 | 23650 ft | 384 kts | 313° |
| 2026-05-05 15:50 | 40.18780 | 19.07788 | 24040 ft | 386 kts | 312° |
| 2026-05-05 15:50 | 40.20645 | 19.05252 | 24395 ft | 388 kts | 312° |
| 2026-05-05 15:50 | 40.22520 | 19.02700 | 24772 ft | 389 kts | 312° |
| 2026-05-05 15:50 | 40.24412 | 19.00225 | 25142 ft | 392 kts | 318° |
| 2026-05-05 15:51 | 40.26726 | 18.98299 | 25516 ft | 398 kts | 330° |
| 2026-05-05 15:51 | 40.29196 | 18.96653 | 25915 ft | 399 kts | 329° |
| 2026-05-05 15:51 | 40.31700 | 18.94951 | 26258 ft | 401 kts | 329° |
| 2026-05-05 15:51 | 40.34176 | 18.93246 | 26606 ft | 403 kts | 329° |
| 2026-05-05 15:52 | 40.36656 | 18.91524 | 26946 ft | 405 kts | 328° |
| 2026-05-05 15:52 | 40.39145 | 18.89788 | 27287 ft | 406 kts | 328° |
| 2026-05-05 15:52 | 40.41643 | 18.88040 | 27626 ft | 408 kts | 328° |
| 2026-05-05 15:52 | 40.44122 | 18.86304 | 27958 ft | 410 kts | 328° |
| 2026-05-05 15:53 | 40.46641 | 18.84537 | 28279 ft | 411 kts | 328° |
| 2026-05-05 15:53 | 40.49202 | 18.82740 | 28616 ft | 413 kts | 328° |
| 2026-05-05 15:53 | 40.51739 | 18.80959 | 28951 ft | 414 kts | 327° |
| 2026-05-05 15:53 | 40.54247 | 18.79196 | 29266 ft | 415 kts | 327° |
| 2026-05-05 15:54 | 40.56797 | 18.77403 | 29548 ft | 417 kts | 327° |
| 2026-05-05 15:54 | 40.59341 | 18.75611 | 29723 ft | 421 kts | 327° |
| 2026-05-05 15:54 | 40.61931 | 18.73786 | 30001 ft | 422 kts | 327° |
| 2026-05-05 15:54 | 40.64514 | 18.71966 | 30439 ft | 419 kts | 327° |
| 2026-05-05 15:55 | 40.67070 | 18.70165 | 30950 ft | 414 kts | 327° |
| 2026-05-05 15:55 | 40.69590 | 18.68387 | 31432 ft | 409 kts | 326° |
| 2026-05-05 15:55 | 40.72096 | 18.66614 | 31729 ft | 409 kts | 326° |
| 2026-05-05 15:55 | 40.74607 | 18.64835 | 31950 ft | 410 kts | 326° |
| 2026-05-05 15:56 | 40.77130 | 18.63065 | 32246 ft | 410 kts | 327° |
| 2026-05-05 15:56 | 40.79662 | 18.61338 | 32598 ft | 409 kts | 327° |
| 2026-05-05 15:56 | 40.82187 | 18.59635 | 32945 ft | 407 kts | 328° |
| 2026-05-05 15:56 | 40.84705 | 18.57939 | 33248 ft | 406 kts | 328° |
| 2026-05-05 15:57 | 40.87226 | 18.56238 | 33512 ft | 406 kts | 328° |
| 2026-05-05 15:57 | 40.89736 | 18.54538 | 33816 ft | 405 kts | 327° |
| 2026-05-05 15:57 | 40.92236 | 18.52842 | 34145 ft | 403 kts | 327° |
| 2026-05-05 15:57 | 40.94725 | 18.51149 | 34402 ft | 402 kts | 327° |
| 2026-05-05 15:58 | 40.97215 | 18.49451 | 34596 ft | 403 kts | 327° |
| 2026-05-05 15:58 | 40.99702 | 18.47753 | 34795 ft | 403 kts | 327° |
| 2026-05-05 15:58 | 41.02189 | 18.46054 | 35030 ft | 402 kts | 327° |
| 2026-05-05 15:58 | 41.04674 | 18.44355 | 35231 ft | 402 kts | 327° |
| 2026-05-05 15:59 | 41.07161 | 18.42653 | 35382 ft | 403 kts | 328° |
| 2026-05-05 15:59 | 41.11326 | 18.39798 | 35536 ft | 407 kts | 328° |
| 2026-05-05 15:59 | 41.13836 | 18.38078 | 35813 ft | 405 kts | 327° |
| 2026-05-05 16:00 | 41.16329 | 18.36369 | 36075 ft | 403 kts | 327° |
| 2026-05-05 16:00 | 41.21341 | 18.32923 | 36057 ft | 407 kts | 327° |
| 2026-05-05 16:01 | 41.26341 | 18.29482 | 36055 ft | 402 kts | 327° |
| 2026-05-05 16:01 | 41.31285 | 18.26074 | 36062 ft | 399 kts | 327° |
| 2026-05-05 16:02 | 41.36195 | 18.22682 | 36061 ft | 397 kts | 327° |
| 2026-05-05 16:02 | 41.41089 | 18.19293 | 36064 ft | 396 kts | 327° |
| 2026-05-05 16:03 | 41.45978 | 18.15904 | 36062 ft | 396 kts | 327° |
| 2026-05-05 16:03 | 41.50849 | 18.12462 | 36058 ft | 395 kts | 324° |
| 2026-05-05 16:04 | 41.55451 | 18.08462 | 36063 ft | 395 kts | 321° |
| 2026-05-05 16:04 | 41.60021 | 18.04350 | 36072 ft | 397 kts | 321° |
| 2026-05-05 16:05 | 41.64625 | 18.00235 | 36058 ft | 399 kts | 321° |
| 2026-05-05 16:05 | 41.69258 | 17.96114 | 36054 ft | 400 kts | 321° |
| 2026-05-05 16:06 | 41.73903 | 17.91982 | 36054 ft | 401 kts | 321° |
| 2026-05-05 16:06 | 41.78550 | 17.87841 | 36051 ft | 401 kts | 321° |
| 2026-05-05 16:07 | 41.83192 | 17.83697 | 36058 ft | 401 kts | 321° |
| 2026-05-05 16:07 | 41.87832 | 17.79547 | 36051 ft | 401 kts | 321° |
| 2026-05-05 16:08 | 41.92414 | 17.75316 | 36043 ft | 397 kts | 315° |
| 2026-05-05 16:08 | 41.96438 | 17.70296 | 36039 ft | 395 kts | 313° |
| 2026-05-05 16:09 | 42.00426 | 17.65232 | 36052 ft | 395 kts | 313° |
| 2026-05-05 16:09 | 42.04430 | 17.60169 | 36046 ft | 395 kts | 313° |
| 2026-05-05 16:10 | 42.08443 | 17.55102 | 36046 ft | 397 kts | 313° |
| 2026-05-05 16:10 | 42.12483 | 17.50017 | 36053 ft | 398 kts | 313° |
| 2026-05-05 16:11 | 42.16528 | 17.44883 | 36051 ft | 401 kts | 313° |
| 2026-05-05 16:12 | 42.24690 | 17.34513 | 36043 ft | 405 kts | 313° |
| 2026-05-05 16:13 | 42.35009 | 17.21360 | 36046 ft | 410 kts | 313° |
| 2026-05-05 16:13 | 42.39158 | 17.16053 | 36040 ft | 411 kts | 313° |
| 2026-05-05 16:14 | 42.47445 | 17.05425 | 36036 ft | 410 kts | 313° |
| 2026-05-05 16:15 | 42.55687 | 16.94812 | 36036 ft | 408 kts | 313° |
| 2026-05-05 16:16 | 42.63884 | 16.84216 | 36035 ft | 406 kts | 313° |
| 2026-05-05 16:17 | 42.70050 | 16.76323 | 36032 ft | 406 kts | 313° |
| 2026-05-05 16:18 | 42.76266 | 16.68490 | 36030 ft | 406 kts | 313° |
| 2026-05-05 16:19 | 42.82478 | 16.60620 | 36039 ft | 407 kts | 313° |
| 2026-05-05 16:19 | 42.88713 | 16.52687 | 36037 ft | 410 kts | 313° |
| 2026-05-05 16:20 | 42.97076 | 16.42007 | 36031 ft | 413 kts | 313° |
| 2026-05-05 16:22 | 43.07598 | 16.28513 | 36044 ft | 416 kts | 313° |
| 2026-05-05 16:23 | 43.16039 | 16.17639 | 36038 ft | 417 kts | 313° |
| 2026-05-05 16:23 | 43.22365 | 16.09461 | 36039 ft | 416 kts | 313° |
| 2026-05-05 16:24 | 43.26573 | 16.04007 | 36046 ft | 416 kts | 313° |
| 2026-05-05 16:25 | 43.32868 | 15.95828 | 36046 ft | 415 kts | 313° |
| 2026-05-05 16:25 | 43.39150 | 15.87641 | 36038 ft | 415 kts | 313° |
| 2026-05-05 16:26 | 43.47502 | 15.76719 | 36036 ft | 414 kts | 313° |
| 2026-05-05 16:27 | 43.51672 | 15.71250 | 36030 ft | 414 kts | 313° |
| 2026-05-05 16:27 | 43.55839 | 15.65773 | 36045 ft | 414 kts | 313° |
| 2026-05-05 16:28 | 43.60005 | 15.60286 | 36037 ft | 415 kts | 313° |
| 2026-05-05 16:28 | 43.64175 | 15.54783 | 36046 ft | 415 kts | 313° |
| 2026-05-05 16:29 | 43.68348 | 15.49265 | 36041 ft | 415 kts | 313° |
| 2026-05-05 16:29 | 43.72519 | 15.43739 | 36047 ft | 416 kts | 313° |
| 2026-05-05 16:30 | 43.76696 | 15.38193 | 36051 ft | 416 kts | 313° |
| 2026-05-05 16:30 | 43.80873 | 15.32636 | 36051 ft | 417 kts | 312° |
| 2026-05-05 16:31 | 43.85056 | 15.27059 | 36055 ft | 418 kts | 312° |
| 2026-05-05 16:31 | 43.89240 | 15.21470 | 36050 ft | 418 kts | 312° |
| 2026-05-05 16:32 | 43.93425 | 15.15868 | 36050 ft | 418 kts | 312° |
| 2026-05-05 16:32 | 43.97607 | 15.10258 | 36054 ft | 418 kts | 312° |
| 2026-05-05 16:33 | 44.01759 | 15.04677 | 36050 ft | 418 kts | 312° |
| 2026-05-05 16:33 | 44.05940 | 14.99046 | 36017 ft | 418 kts | 312° |
| 2026-05-05 16:34 | 44.10118 | 14.93408 | 36028 ft | 419 kts | 311° |
| 2026-05-05 16:34 | 44.14296 | 14.87756 | 36011 ft | 419 kts | 311° |
| 2026-05-05 16:35 | 44.18498 | 14.82062 | 36013 ft | 418 kts | 311° |
| 2026-05-05 16:35 | 44.22650 | 14.76423 | 36018 ft | 416 kts | 311° |
| 2026-05-05 16:36 | 44.26758 | 14.70833 | 36000 ft | 415 kts | 311° |
| 2026-05-05 16:36 | 44.30885 | 14.65204 | 36024 ft | 414 kts | 311° |
| 2026-05-05 16:37 | 44.35028 | 14.59541 | 36007 ft | 414 kts | 311° |
| 2026-05-05 16:37 | 44.39144 | 14.53904 | 36017 ft | 414 kts | 311° |
| 2026-05-05 16:38 | 44.43258 | 14.48257 | 36014 ft | 415 kts | 311° |
| 2026-05-05 16:38 | 44.47378 | 14.42591 | 36027 ft | 416 kts | 311° |
| 2026-05-05 16:39 | 44.51485 | 14.36931 | 36015 ft | 418 kts | 311° |
| 2026-05-05 16:39 | 44.55632 | 14.31204 | 36003 ft | 419 kts | 311° |
| 2026-05-05 16:40 | 44.59791 | 14.25447 | 36011 ft | 421 kts | 311° |
| 2026-05-05 16:40 | 44.63287 | 14.20600 | 36008 ft | 422 kts | 311° |
| 2026-05-05 16:41 | 44.67467 | 14.14792 | 36015 ft | 423 kts | 311° |
| 2026-05-05 16:41 | 44.71654 | 14.08963 | 36019 ft | 424 kts | 311° |
| 2026-05-05 16:42 | 44.75850 | 14.03109 | 36023 ft | 425 kts | 311° |
| 2026-05-05 16:42 | 44.80047 | 13.97239 | 36022 ft | 425 kts | 311° |
| 2026-05-05 16:43 | 44.84217 | 13.91396 | 36024 ft | 426 kts | 311° |
| 2026-05-05 16:43 | 44.88439 | 13.85466 | 36022 ft | 425 kts | 311° |
| 2026-05-05 16:44 | 44.92625 | 13.79574 | 36027 ft | 425 kts | 311° |
| 2026-05-05 16:44 | 44.96814 | 13.73663 | 35781 ft | 429 kts | 311° |
| 2026-05-05 16:45 | 44.98933 | 13.70667 | 35393 ft | 431 kts | 311° |
| 2026-05-05 16:45 | 45.01045 | 13.67681 | 35038 ft | 428 kts | 311° |
| 2026-05-05 16:45 | 45.05198 | 13.61802 | 35003 ft | 421 kts | 311° |
| 2026-05-05 16:46 | 45.09343 | 13.55912 | 35002 ft | 425 kts | 310° |
| 2026-05-05 16:46 | 45.13535 | 13.49944 | 34993 ft | 428 kts | 310° |
| 2026-05-05 16:47 | 45.17702 | 13.44005 | 35332 ft | 420 kts | 310° |
| 2026-05-05 16:47 | 45.19755 | 13.41074 | 35563 ft | 418 kts | 310° |
| 2026-05-05 16:47 | 45.21799 | 13.38149 | 35806 ft | 417 kts | 310° |
| 2026-05-05 16:48 | 45.23834 | 13.35234 | 36000 ft | 416 kts | 310° |
| 2026-05-05 16:48 | 45.25883 | 13.32295 | 35977 ft | 421 kts | 311° |
| 2026-05-05 16:48 | 45.30039 | 13.26327 | 35995 ft | 429 kts | 311° |
| 2026-05-05 16:49 | 45.34448 | 13.20521 | 35995 ft | 435 kts | 315° |
| 2026-05-05 16:49 | 45.39116 | 13.15009 | 35982 ft | 436 kts | 316° |
| 2026-05-05 16:50 | 45.43748 | 13.09559 | 35977 ft | 429 kts | 316° |
| 2026-05-05 16:50 | 45.48319 | 13.04093 | 35991 ft | 429 kts | 316° |
| 2026-05-05 16:51 | 45.52882 | 12.98582 | 35991 ft | 431 kts | 315° |
| 2026-05-05 16:51 | 45.57452 | 12.93041 | 35996 ft | 432 kts | 315° |
| 2026-05-05 16:52 | 45.62034 | 12.87472 | 36000 ft | 433 kts | 315° |
| 2026-05-05 16:52 | 45.66625 | 12.81883 | 35992 ft | 434 kts | 315° |
| 2026-05-05 16:53 | 45.71221 | 12.76276 | 36002 ft | 434 kts | 315° |
| 2026-05-05 16:53 | 45.75785 | 12.70695 | 35999 ft | 435 kts | 315° |
| 2026-05-05 16:54 | 45.80382 | 12.65063 | 36018 ft | 435 kts | 315° |
| 2026-05-05 16:54 | 45.84976 | 12.59420 | 36005 ft | 435 kts | 315° |
| 2026-05-05 16:55 | 45.89563 | 12.53773 | 35997 ft | 434 kts | 315° |
| 2026-05-05 16:55 | 45.94144 | 12.48121 | 35998 ft | 434 kts | 315° |
| 2026-05-05 16:56 | 45.98718 | 12.42464 | 35997 ft | 433 kts | 315° |
| 2026-05-05 16:56 | 46.03282 | 12.36808 | 36012 ft | 433 kts | 315° |
| 2026-05-05 16:57 | 46.07846 | 12.31137 | 36000 ft | 433 kts | 315° |
| 2026-05-05 16:57 | 46.12401 | 12.25467 | 35996 ft | 432 kts | 315° |
| 2026-05-05 16:58 | 46.16946 | 12.19795 | 36000 ft | 432 kts | 315° |
| 2026-05-05 16:58 | 46.21490 | 12.14110 | 35991 ft | 432 kts | 315° |
| 2026-05-05 16:59 | 46.26033 | 12.08416 | 35994 ft | 433 kts | 315° |
| 2026-05-05 16:59 | 46.30585 | 12.02697 | 35991 ft | 434 kts | 314° |
| 2026-05-05 17:00 | 46.35150 | 11.96947 | 35999 ft | 436 kts | 314° |
| 2026-05-05 17:00 | 46.39726 | 11.91170 | 35992 ft | 437 kts | 314° |
| 2026-05-05 17:01 | 46.44302 | 11.85383 | 35984 ft | 436 kts | 314° |
| 2026-05-05 17:01 | 46.48868 | 11.79593 | 35973 ft | 436 kts | 314° |
| 2026-05-05 17:02 | 46.53437 | 11.73785 | 35957 ft | 437 kts | 314° |
| 2026-05-05 17:02 | 46.58002 | 11.67969 | 35964 ft | 436 kts | 314° |
| 2026-05-05 17:03 | 46.62567 | 11.62139 | 35956 ft | 437 kts | 314° |
| 2026-05-05 17:03 | 46.67125 | 11.56305 | 35953 ft | 437 kts | 314° |
| 2026-05-05 17:04 | 46.71684 | 11.50456 | 35953 ft | 437 kts | 314° |
| 2026-05-05 17:04 | 46.76248 | 11.44585 | 35976 ft | 438 kts | 314° |
| 2026-05-05 17:05 | 46.80818 | 11.38694 | 35959 ft | 438 kts | 313° |
| 2026-05-05 17:05 | 46.85388 | 11.32788 | 35934 ft | 439 kts | 313° |
| 2026-05-05 17:06 | 46.89957 | 11.26871 | 35937 ft | 439 kts | 313° |
| 2026-05-05 17:06 | 46.94524 | 11.20960 | 35913 ft | 439 kts | 315° |
| 2026-05-05 17:07 | 46.99420 | 11.15559 | 35909 ft | 442 kts | 319° |
| 2026-05-05 17:07 | 47.04497 | 11.10332 | 35902 ft | 443 kts | 319° |
| 2026-05-05 17:08 | 47.09496 | 11.05129 | 35881 ft | 444 kts | 319° |
| 2026-05-05 17:08 | 47.14513 | 10.99827 | 35856 ft | 445 kts | 318° |
| 2026-05-05 17:09 | 47.19521 | 10.94496 | 35849 ft | 445 kts | 318° |
| 2026-05-05 17:09 | 47.24544 | 10.89133 | 35840 ft | 447 kts | 318° |
| 2026-05-05 17:10 | 47.29579 | 10.83745 | 35858 ft | 448 kts | 318° |
| 2026-05-05 17:10 | 47.34657 | 10.78300 | 35853 ft | 449 kts | 318° |
| 2026-05-05 17:11 | 47.39706 | 10.72874 | 35858 ft | 450 kts | 318° |
| 2026-05-05 17:11 | 47.44741 | 10.67448 | 35847 ft | 452 kts | 318° |
| 2026-05-05 17:12 | 47.49818 | 10.61964 | 35851 ft | 452 kts | 318° |
| 2026-05-05 17:12 | 47.54934 | 10.56426 | 35855 ft | 453 kts | 318° |
| 2026-05-05 17:13 | 47.60010 | 10.50917 | 35892 ft | 452 kts | 318° |
| 2026-05-05 17:13 | 47.65093 | 10.45385 | 35860 ft | 454 kts | 318° |
| 2026-05-05 17:14 | 47.70180 | 10.39836 | 35848 ft | 454 kts | 318° |
| 2026-05-05 17:14 | 47.75264 | 10.34270 | 35844 ft | 454 kts | 317° |
| 2026-05-05 17:15 | 47.80142 | 10.28459 | 35844 ft | 452 kts | 315° |
| 2026-05-05 17:15 | 47.84965 | 10.22466 | 35832 ft | 451 kts | 315° |
| 2026-05-05 17:16 | 47.89798 | 10.16494 | 35844 ft | 452 kts | 315° |
| 2026-05-05 17:16 | 47.94652 | 10.10533 | 35833 ft | 452 kts | 316° |
| 2026-05-05 17:17 | 47.99508 | 10.04573 | 35826 ft | 452 kts | 316° |
| 2026-05-05 17:17 | 48.04353 | 9.98611 | 35828 ft | 451 kts | 316° |
| 2026-05-05 17:18 | 48.09193 | 9.92638 | 35831 ft | 451 kts | 316° |
| 2026-05-05 17:18 | 48.14031 | 9.86651 | 35830 ft | 451 kts | 316° |
| 2026-05-05 17:19 | 48.18872 | 9.80644 | 35838 ft | 452 kts | 316° |
| 2026-05-05 17:19 | 48.23715 | 9.74620 | 35830 ft | 453 kts | 316° |
| 2026-05-05 17:20 | 48.27743 | 9.69599 | 35821 ft | 453 kts | 316° |
| 2026-05-05 17:20 | 48.32592 | 9.63541 | 35832 ft | 454 kts | 316° |
| 2026-05-05 17:21 | 48.37427 | 9.57422 | 35828 ft | 455 kts | 316° |
| 2026-05-05 17:22 | 48.44639 | 9.48120 | 35830 ft | 456 kts | 316° |
| 2026-05-05 17:22 | 48.49460 | 9.41897 | 35828 ft | 457 kts | 316° |
| 2026-05-05 17:23 | 48.54287 | 9.35650 | 35833 ft | 458 kts | 316° |
| 2026-05-05 17:23 | 48.59120 | 9.29386 | 35837 ft | 457 kts | 316° |
| 2026-05-05 17:24 | 48.64395 | 9.23974 | 35831 ft | 463 kts | 333° |
| 2026-05-05 17:24 | 48.70333 | 9.20130 | 35826 ft | 465 kts | 335° |
| 2026-05-05 17:25 | 48.76277 | 9.16323 | 35671 ft | 461 kts | 335° |
| 2026-05-05 17:25 | 48.78251 | 9.15027 | 35477 ft | 455 kts | 334° |
| 2026-05-05 17:25 | 48.82046 | 9.12508 | 35145 ft | 445 kts | 334° |
| 2026-05-05 17:25 | 48.84866 | 9.10627 | 34897 ft | 440 kts | 334° |
| 2026-05-05 17:26 | 48.87659 | 9.08765 | 34655 ft | 437 kts | 335° |
| 2026-05-05 17:26 | 48.90479 | 9.07072 | 34413 ft | 436 kts | 339° |
| 2026-05-05 17:26 | 48.93341 | 9.05599 | 34184 ft | 434 kts | 341° |
| 2026-05-05 17:26 | 48.96212 | 9.04213 | 33938 ft | 432 kts | 342° |
| 2026-05-05 17:27 | 48.99079 | 9.02846 | 33680 ft | 430 kts | 342° |
| 2026-05-05 17:27 | 49.01929 | 9.01462 | 33412 ft | 429 kts | 342° |
| 2026-05-05 17:27 | 49.04766 | 9.00063 | 33140 ft | 428 kts | 342° |
| 2026-05-05 17:27 | 49.07594 | 8.98654 | 32871 ft | 427 kts | 341° |
| 2026-05-05 17:28 | 49.10415 | 8.97238 | 32615 ft | 426 kts | 341° |
| 2026-05-05 17:28 | 49.13225 | 8.95819 | 32352 ft | 425 kts | 341° |
| 2026-05-05 17:28 | 49.16031 | 8.94398 | 32089 ft | 424 kts | 341° |
| 2026-05-05 17:28 | 49.18833 | 8.92978 | 31817 ft | 423 kts | 341° |
| 2026-05-05 17:29 | 49.21626 | 8.91560 | 31557 ft | 422 kts | 341° |
| 2026-05-05 17:29 | 49.24410 | 8.90145 | 31310 ft | 421 kts | 341° |
| 2026-05-05 17:29 | 49.27188 | 8.88732 | 31081 ft | 420 kts | 342° |
| 2026-05-05 17:29 | 49.29955 | 8.87324 | 30830 ft | 418 kts | 342° |
| 2026-05-05 17:30 | 49.32707 | 8.85921 | 30578 ft | 416 kts | 342° |
| 2026-05-05 17:30 | 49.35446 | 8.84524 | 30324 ft | 412 kts | 342° |
| 2026-05-05 17:30 | 49.38158 | 8.83139 | 30035 ft | 408 kts | 342° |
| 2026-05-05 17:30 | 49.40643 | 8.81880 | 29690 ft | 406 kts | 343° |
| 2026-05-05 17:31 | 49.43333 | 8.80645 | 29306 ft | 402 kts | 345° |
| 2026-05-05 17:31 | 49.45158 | 8.79856 | 29075 ft | 400 kts | 345° |
| 2026-05-05 17:31 | 49.47828 | 8.78724 | 28693 ft | 397 kts | 345° |
| 2026-05-05 17:31 | 49.50477 | 8.77602 | 28348 ft | 393 kts | 345° |
| 2026-05-05 17:32 | 49.53100 | 8.76480 | 27974 ft | 391 kts | 345° |
| 2026-05-05 17:32 | 49.55714 | 8.75352 | 27624 ft | 388 kts | 345° |
| 2026-05-05 17:32 | 49.58305 | 8.74224 | 27269 ft | 385 kts | 345° |
| 2026-05-05 17:32 | 49.60871 | 8.73102 | 26916 ft | 383 kts | 345° |
| 2026-05-05 17:33 | 49.63425 | 8.71981 | 26568 ft | 380 kts | 344° |
| 2026-05-05 17:33 | 49.65965 | 8.70864 | 26227 ft | 378 kts | 344° |
| 2026-05-05 17:33 | 49.68483 | 8.69755 | 25893 ft | 376 kts | 344° |
| 2026-05-05 17:33 | 49.70995 | 8.68647 | 25549 ft | 374 kts | 344° |
| 2026-05-05 17:34 | 49.73492 | 8.67545 | 25220 ft | 373 kts | 344° |
| 2026-05-05 17:34 | 49.75989 | 8.66442 | 24873 ft | 372 kts | 344° |
| 2026-05-05 17:34 | 49.78466 | 8.65346 | 24538 ft | 370 kts | 344° |
| 2026-05-05 17:34 | 49.80940 | 8.64250 | 24198 ft | 369 kts | 344° |
| 2026-05-05 17:35 | 49.83407 | 8.63157 | 23861 ft | 368 kts | 344° |
| 2026-05-05 17:35 | 49.85867 | 8.62065 | 23511 ft | 367 kts | 343° |
| 2026-05-05 17:35 | 49.88323 | 8.60974 | 23121 ft | 367 kts | 344° |
| 2026-05-05 17:35 | 49.90770 | 8.59886 | 22754 ft | 365 kts | 344° |
| 2026-05-05 17:36 | 49.93204 | 8.58802 | 22397 ft | 363 kts | 344° |
| 2026-05-05 17:36 | 49.95626 | 8.57723 | 22072 ft | 361 kts | 344° |
| 2026-05-05 17:36 | 49.98036 | 8.56648 | 21737 ft | 359 kts | 343° |
| 2026-05-05 17:36 | 50.00431 | 8.55579 | 21399 ft | 357 kts | 343° |
| 2026-05-05 17:37 | 50.02812 | 8.54515 | 21072 ft | 355 kts | 343° |
| 2026-05-05 17:37 | 50.05183 | 8.53453 | 20745 ft | 354 kts | 343° |
| 2026-05-05 17:37 | 50.07520 | 8.52287 | 20415 ft | 352 kts | 340° |
| 2026-05-05 17:37 | 50.09831 | 8.51033 | 20084 ft | 351 kts | 340° |
| 2026-05-05 17:38 | 50.12126 | 8.49765 | 19752 ft | 350 kts | 340° |
| 2026-05-05 17:38 | 50.14415 | 8.48502 | 19424 ft | 349 kts | 340° |
| 2026-05-05 17:38 | 50.16697 | 8.47250 | 19091 ft | 348 kts | 340° |
| 2026-05-05 17:38 | 50.18884 | 8.46057 | 18788 ft | 348 kts | 340° |
| 2026-05-05 17:39 | 50.21153 | 8.44823 | 18465 ft | 347 kts | 340° |
| 2026-05-05 17:39 | 50.23439 | 8.43582 | 18140 ft | 347 kts | 340° |
| 2026-05-05 17:39 | 50.25716 | 8.42344 | 17774 ft | 346 kts | 340° |
| 2026-05-05 17:39 | 50.27988 | 8.41106 | 17418 ft | 345 kts | 340° |
| 2026-05-05 17:40 | 50.30185 | 8.39621 | 17062 ft | 343 kts | 329° |
| 2026-05-05 17:40 | 50.32191 | 8.37640 | 16758 ft | 339 kts | 325° |
| 2026-05-05 17:40 | 50.34152 | 8.35597 | 16430 ft | 338 kts | 325° |
| 2026-05-05 17:40 | 50.35876 | 8.33824 | 16146 ft | 337 kts | 326° |
| 2026-05-05 17:41 | 50.37465 | 8.32222 | 15890 ft | 335 kts | 326° |
| 2026-05-05 17:41 | 50.39264 | 8.30427 | 15598 ft | 334 kts | 327° |
| 2026-05-05 17:41 | 50.41225 | 8.28475 | 15268 ft | 333 kts | 326° |
| 2026-05-05 17:41 | 50.43172 | 8.26523 | 14949 ft | 332 kts | 326° |
| 2026-05-05 17:42 | 50.45112 | 8.24569 | 14647 ft | 331 kts | 326° |
| 2026-05-05 17:42 | 50.47045 | 8.22618 | 14329 ft | 330 kts | 326° |
| 2026-05-05 17:42 | 50.48972 | 8.20673 | 14021 ft | 329 kts | 326° |
| 2026-05-05 17:42 | 50.50894 | 8.18729 | 13705 ft | 328 kts | 326° |
| 2026-05-05 17:43 | 50.52814 | 8.16787 | 13372 ft | 327 kts | 326° |
| 2026-05-05 17:43 | 50.54724 | 8.14854 | 13018 ft | 327 kts | 326° |
| 2026-05-05 17:43 | 50.56632 | 8.12922 | 12690 ft | 325 kts | 326° |
| 2026-05-05 17:43 | 50.58343 | 8.11188 | 12399 ft | 324 kts | 326° |
| 2026-05-05 17:44 | 50.60232 | 8.09271 | 12078 ft | 322 kts | 326° |
| 2026-05-05 17:44 | 50.62108 | 8.07373 | 11774 ft | 321 kts | 327° |
| 2026-05-05 17:44 | 50.63986 | 8.05475 | 11478 ft | 320 kts | 327° |
| 2026-05-05 17:44 | 50.65846 | 8.03595 | 11166 ft | 314 kts | 327° |
| 2026-05-05 17:45 | 50.67671 | 8.01748 | 10862 ft | 309 kts | 326° |
| 2026-05-05 17:45 | 50.69467 | 7.99930 | 10568 ft | 304 kts | 326° |
| 2026-05-05 17:45 | 50.71209 | 7.98163 | 10366 ft | 293 kts | 326° |
| 2026-05-05 17:45 | 50.72821 | 7.96527 | 9995 ft | 290 kts | 326° |
| 2026-05-05 17:46 | 50.74314 | 7.94426 | 9529 ft | 288 kts | 302° |
| 2026-05-05 17:46 | 50.75017 | 7.91533 | 9090 ft | 282 kts | 276° |
| 2026-05-05 17:46 | 50.74996 | 7.88478 | 8670 ft | 277 kts | 261° |
| 2026-05-05 17:46 | 50.74740 | 7.85660 | 8259 ft | 276 kts | 260° |
| 2026-05-05 17:47 | 50.74449 | 7.82670 | 7681 ft | 279 kts | 260° |
| 2026-05-05 17:47 | 50.74158 | 7.79592 | 6859 ft | 292 kts | 261° |
| 2026-05-05 17:47 | 50.73875 | 7.76486 | 6716 ft | 278 kts | 261° |
| 2026-05-05 17:47 | 50.73528 | 7.73559 | 6480 ft | 267 kts | 248° |
| 2026-05-05 17:48 | 50.72643 | 7.71025 | 6092 ft | 264 kts | 235° |
| 2026-05-05 17:48 | 50.71597 | 7.68655 | 5660 ft | 263 kts | 233° |
| 2026-05-05 17:48 | 50.70552 | 7.66341 | 5253 ft | 261 kts | 233° |
| 2026-05-05 17:48 | 50.69503 | 7.64031 | 4861 ft | 259 kts | 233° |
| 2026-05-05 17:49 | 50.68455 | 7.61736 | 4465 ft | 257 kts | 233° |
| 2026-05-05 17:49 | 50.67405 | 7.59459 | 4043 ft | 256 kts | 231° |
| 2026-05-05 17:49 | 50.66269 | 7.57305 | 3624 ft | 255 kts | 226° |
| 2026-05-05 17:49 | 50.64902 | 7.55539 | 3203 ft | 254 kts | 213° |
| 2026-05-05 17:50 | 50.63423 | 7.54041 | 3018 ft | 254 kts | 211° |
| 2026-05-05 17:50 | 50.61963 | 7.52550 | 2970 ft | 242 kts | 220° |
| 2026-05-05 17:50 | 50.61049 | 7.50502 | 2956 ft | 222 kts | 255° |
| 2026-05-05 17:50 | 50.61170 | 7.48214 | 2956 ft | 208 kts | 296° |
| 2026-05-05 17:51 | 50.62247 | 7.46723 | 2994 ft | 215 kts | 337° |
| 2026-05-05 17:51 | 50.63652 | 7.45979 | 2976 ft | 208 kts | 335° |
| 2026-05-05 17:51 | 50.64898 | 7.44989 | 2957 ft | 194 kts | 332° |
| 2026-05-05 17:51 | 50.66018 | 7.43933 | 2988 ft | 184 kts | 328° |
| 2026-05-05 17:52 | 50.67100 | 7.42778 | 2998 ft | 192 kts | 327° |
| 2026-05-05 17:52 | 50.68200 | 7.41539 | 2987 ft | 195 kts | 323° |
| 2026-05-05 17:52 | 50.68893 | 7.40655 | 2979 ft | 193 kts | 321° |
| 2026-05-05 17:52 | 50.70248 | 7.38781 | 2978 ft | 189 kts | 319° |
| 2026-05-05 17:53 | 50.71196 | 7.37417 | 2974 ft | 187 kts | 319° |
| 2026-05-05 17:53 | 50.72156 | 7.36024 | 2985 ft | 190 kts | 318° |
| 2026-05-05 17:53 | 50.73122 | 7.34617 | 2972 ft | 187 kts | 319° |
| 2026-05-05 17:53 | 50.74067 | 7.33246 | 2978 ft | 183 kts | 318° |
| 2026-05-05 17:54 | 50.74998 | 7.31885 | 2992 ft | 181 kts | 319° |
| 2026-05-05 17:54 | 50.75887 | 7.30585 | 2914 ft | 169 kts | 319° |
| 2026-05-05 17:54 | 50.76758 | 7.29310 | 2691 ft | 172 kts | 319° |
| 2026-05-05 17:54 | 50.77631 | 7.28041 | 2472 ft | 169 kts | 320° |
| 2026-05-05 17:55 | 50.78474 | 7.26820 | 2256 ft | 163 kts | 320° |
| 2026-05-05 17:55 | 50.79300 | 7.25618 | 2043 ft | 161 kts | 320° |
| 2026-05-05 17:55 | 50.80119 | 7.24425 | 1841 ft | 158 kts | 320° |
| 2026-05-05 17:55 | 50.80910 | 7.23265 | 1615 ft | 155 kts | 319° |
| 2026-05-05 17:56 | 50.81694 | 7.22127 | 1403 ft | 151 kts | 321° |
| 2026-05-05 17:56 | 50.82474 | 7.21001 | 1146 ft | 152 kts | 317° |
| 2026-05-05 17:56 | 50.83235 | 7.19885 | 995 ft | 147 kts | 317° |
| 2026-05-05 17:56 | 50.83987 | 7.18786 | 811 ft | 147 kts | 319° |
| 2026-05-05 17:57 | 50.84759 | 7.17694 | 572 ft | 149 kts | 315° |
| 2026-05-05 17:57 | 50.85509 | 7.16583 | 361 ft | 147 kts | 318° |
| 2026-05-05 17:57 | 50.86215 | 7.15552 | 292 ft | 108 kts | 317° |
| 2026-05-05 17:57 | 50.86628 | 7.14955 | 273 ft | 73 kts | 317° |
| 2026-05-05 17:58 | 50.86841 | 7.14595 | 262 ft | 34 kts | 298° |
| 2026-05-05 17:58 | 50.86890 | 7.14297 | 256 ft | 24 kts | 278° |
| 2026-05-05 17:58 | 50.86915 | 7.14067 | 254 ft | 18 kts | 278° |
| 2026-05-05 17:58 | 50.86951 | 7.13886 | 246 ft | 17 kts | 309° |
| 2026-05-05 17:59 | 50.87037 | 7.13760 | 241 ft | 17 kts | 318° |
| 2026-05-05 17:59 | 50.87093 | 7.13680 | 239 ft | 16 kts | 317° |
| 2026-05-05 17:59 | 50.87173 | 7.13561 | 240 ft | 16 kts | 317° |
| 2026-05-05 17:59 | 50.87251 | 7.13447 | 236 ft | 15 kts | 317° |
| 2026-05-05 18:00 | 50.87326 | 7.13339 | 231 ft | 14 kts | 318° |
| 2026-05-05 18:00 | 50.87398 | 7.13236 | 231 ft | 14 kts | 316° |
| 2026-05-05 18:00 | 50.87467 | 7.13137 | 231 ft | 13 kts | 318° |
| 2026-05-05 18:00 | 50.87533 | 7.13041 | 231 ft | 13 kts | 317° |
| 2026-05-05 18:01 | 50.87597 | 7.12947 | 231 ft | 12 kts | 317° |
| 2026-05-05 18:01 | 50.87660 | 7.12857 | 231 ft | 12 kts | 318° |
| 2026-05-05 18:01 | 50.87721 | 7.12768 | 231 ft | 12 kts | 317° |
| 2026-05-05 18:01 | 50.87781 | 7.12682 | 231 ft | 11 kts | 317° |
| 2026-05-05 18:02 | 50.87846 | 7.12616 | 231 ft | 11 kts | 344° |
| 2026-05-05 18:02 | 50.87921 | 7.12601 | 233 ft | 11 kts | 336° |
| 2026-05-05 18:02 | 50.87978 | 7.12528 | 231 ft | 10 kts | 318° |
| 2026-05-05 18:02 | 50.88030 | 7.12453 | 231 ft | 10 kts | 317° |
| 2026-05-05 18:03 | 50.88076 | 7.12373 | 232 ft | 10 kts | 306° |
| 2026-05-05 18:03 | 50.88115 | 7.12288 | 233 ft | 9 kts | 306° |
| 2026-05-05 18:03 | 50.88153 | 7.12206 | 231 ft | 9 kts | 306° |
| 2026-05-05 18:03 | 50.88189 | 7.12126 | 231 ft | 9 kts | 306° |
| 2026-05-05 18:04 | 50.88225 | 7.12049 | 231 ft | 8 kts | 306° |
| 2026-05-05 18:04 | 50.88245 | 7.11970 | 231 ft | 8 kts | 255° |
| 2026-05-05 18:04 | 50.88210 | 7.11917 | 231 ft | 5 kts | 216° |
| 2026-05-05 18:04 | 50.88198 | 7.11903 | 231 ft | 0 kts | 216° |